createdAt,value
2022-12-17T00:02:33.954Z,1.00
2022-12-17T00:05:19.321Z,1.00
2022-12-17T00:08:04.855Z,1.10
2022-12-17T00:10:50.101Z,1.05
2022-12-17T00:13:40.710Z,0.90
2022-12-17T00:16:26.882Z,1.00
2022-12-17T00:19:12.072Z,1.10
2022-12-17T00:21:57.638Z,1.10
2022-12-17T00:24:43.402Z,1.05
2022-12-17T00:27:28.539Z,1.00
2022-12-17T00:30:14.150Z,0.90
2022-12-17T00:32:59.757Z,1.02
2022-12-17T00:35:45.484Z,1.17
2022-12-17T00:38:35.630Z,1.20
2022-12-17T00:41:22.715Z,1.15
2022-12-17T00:44:08.205Z,1.15
2022-12-17T00:46:53.787Z,1.10
2022-12-17T00:49:39.014Z,1.00
2022-12-17T00:52:24.485Z,1.35
2022-12-17T00:55:10.043Z,1.10
2022-12-17T00:57:55.142Z,1.10
2022-12-17T01:00:42.063Z,1.17
2022-12-17T01:03:30.896Z,1.20
2022-12-17T01:06:21.023Z,1.00
2022-12-17T01:09:06.526Z,1.13
2022-12-17T01:11:52.298Z,1.08
2022-12-17T01:14:37.819Z,1.13
2022-12-17T01:17:23.558Z,1.08
2022-12-17T01:20:09.102Z,1.00
2022-12-17T01:22:54.551Z,1.13
2022-12-17T01:25:42.043Z,1.10
2022-12-17T01:28:27.396Z,1.30
2022-12-17T01:31:15.976Z,1.30
2022-12-17T01:34:01.716Z,1.05
2022-12-17T01:36:47.087Z,1.05
2022-12-17T01:39:32.538Z,1.30
2022-12-17T01:42:18.044Z,1.15
2022-12-17T01:45:05.690Z,1.17
2022-12-17T01:47:59.165Z,1.30
2022-12-17T01:53:33.474Z,1.10
2022-12-17T01:56:19.364Z,1.20
2022-12-17T01:59:05.414Z,1.20
2022-12-17T02:01:51.256Z,1.10
2022-12-17T02:04:36.619Z,1.27
2022-12-17T02:07:55.898Z,1.20
2022-12-17T02:10:41.324Z,1.40
2022-12-17T02:13:35.235Z,1.02
2022-12-17T02:16:37.203Z,1.27
2022-12-17T02:19:35.117Z,1.38
2022-12-17T02:22:34.214Z,1.33
2022-12-17T02:25:30.474Z,1.33
2022-12-17T02:28:16.019Z,1.33
2022-12-17T02:31:01.769Z,1.30
2022-12-17T02:33:47.157Z,1.10
2022-12-17T02:36:32.663Z,1.30
2022-12-17T02:39:18.160Z,1.10
2022-12-17T02:42:07.702Z,1.35
2022-12-17T02:44:54.569Z,1.20
2022-12-17T02:47:41.835Z,1.20
2022-12-17T02:50:27.836Z,1.20
2022-12-17T02:53:14.433Z,1.30
2022-12-17T02:55:59.961Z,1.30
2022-12-17T02:58:45.417Z,1.40
2022-12-17T03:01:30.916Z,1.10
2022-12-17T03:04:16.113Z,1.27
2022-12-17T03:07:01.552Z,1.40
2022-12-17T03:09:47.088Z,1.20
2022-12-17T03:12:32.431Z,1.20
2022-12-17T03:15:18.107Z,1.33
2022-12-17T03:18:03.450Z,1.40
2022-12-17T03:20:49.051Z,1.25
2022-12-17T03:23:34.678Z,1.33
2022-12-17T03:26:21.768Z,1.35
2022-12-17T03:29:07.965Z,1.40
2022-12-17T03:31:53.855Z,1.50
2022-12-17T03:34:39.458Z,1.30
2022-12-17T03:37:25.726Z,1.30
2022-12-17T03:40:11.094Z,1.30
2022-12-17T03:42:56.734Z,1.20
2022-12-17T03:45:42.295Z,1.17
2022-12-17T03:48:32.624Z,1.10
2022-12-17T03:51:20.750Z,1.45
2022-12-17T03:54:11.282Z,1.30
2022-12-17T03:56:57.001Z,1.38
2022-12-17T03:59:42.461Z,1.20
2022-12-17T04:02:27.900Z,1.20
2022-12-17T04:05:19.729Z,1.13
2022-12-17T04:08:05.842Z,1.40
2022-12-17T04:10:51.166Z,1.42
2022-12-17T04:13:40.748Z,1.33
2022-12-17T04:16:27.409Z,1.20
2022-12-17T04:19:12.775Z,1.10
2022-12-17T04:21:58.510Z,1.25
2022-12-17T04:24:43.672Z,1.10
2022-12-17T04:27:29.164Z,1.20
2022-12-17T04:30:14.149Z,1.40
2022-12-17T04:32:59.561Z,1.38
2022-12-17T04:35:45.095Z,1.45
2022-12-17T04:38:30.580Z,1.48
2022-12-17T04:41:15.743Z,1.52
2022-12-17T04:44:03.161Z,1.27
2022-12-17T04:46:49.409Z,1.40
2022-12-17T04:49:34.842Z,1.23
2022-12-17T04:52:20.338Z,1.30
2022-12-17T04:55:05.898Z,1.30
2022-12-17T04:57:51.507Z,1.40
2022-12-17T05:00:44.912Z,1.40
2022-12-17T05:06:17.315Z,1.58
2022-12-17T05:09:02.874Z,1.42
2022-12-17T05:11:48.337Z,1.70
2022-12-17T05:14:34.131Z,1.30
2022-12-17T05:17:19.592Z,1.20
2022-12-17T05:20:05.541Z,1.40
2022-12-17T05:22:50.985Z,1.30
2022-12-17T05:25:36.588Z,1.30
2022-12-17T05:28:22.028Z,1.20
2022-12-17T05:31:14.101Z,1.27
2022-12-17T05:33:59.739Z,1.50
2022-12-17T05:36:45.307Z,1.40
2022-12-17T05:39:30.914Z,1.33
2022-12-17T05:42:16.458Z,1.40
2022-12-17T05:45:02.020Z,1.30
2022-12-17T05:47:47.390Z,1.40
2022-12-17T05:50:33.593Z,1.60
2022-12-17T05:53:25.524Z,1.33
2022-12-17T05:56:11.556Z,1.30
2022-12-17T05:58:57.631Z,1.20
2022-12-17T06:01:43.313Z,1.33
2022-12-17T06:04:29.108Z,1.40
2022-12-17T06:07:14.755Z,1.50
2022-12-17T06:10:00.050Z,1.63
2022-12-17T06:12:45.568Z,1.40
2022-12-17T06:15:31.216Z,1.40
2022-12-17T06:18:17.532Z,1.30
2022-12-17T06:21:03.277Z,1.40
2022-12-17T06:23:48.827Z,1.52
2022-12-17T06:26:34.210Z,1.30
2022-12-17T06:29:19.632Z,1.30
2022-12-17T06:32:04.891Z,1.30
2022-12-17T06:34:50.400Z,1.42
2022-12-17T06:37:49.692Z,1.48
2022-12-17T06:40:35.066Z,1.63
2022-12-17T06:43:20.691Z,1.60
2022-12-17T06:46:05.862Z,1.50
2022-12-17T06:48:51.307Z,1.50
2022-12-17T06:51:36.720Z,1.40
2022-12-17T06:54:21.965Z,1.30
2022-12-17T06:57:07.479Z,1.40
2022-12-17T06:59:52.811Z,1.30
2022-12-17T07:02:38.279Z,1.30
2022-12-17T07:05:24.072Z,1.35
2022-12-17T07:08:18.292Z,1.45
2022-12-17T07:11:04.064Z,1.60
2022-12-17T07:13:49.437Z,1.30
2022-12-17T07:16:34.678Z,1.30
2022-12-17T07:19:25.310Z,1.40
2022-12-17T07:22:12.486Z,1.60
2022-12-17T07:24:57.971Z,1.45
2022-12-17T07:27:43.536Z,1.30
2022-12-17T07:30:29.608Z,1.20
2022-12-17T07:33:24.582Z,1.48
2022-12-17T07:36:12.185Z,1.30
2022-12-17T07:38:57.637Z,1.50
2022-12-17T07:41:43.193Z,1.30
2022-12-17T07:44:29.322Z,1.30
2022-12-17T07:47:14.934Z,1.42
2022-12-17T07:50:00.505Z,1.35
2022-12-17T07:52:45.971Z,1.23
2022-12-17T07:55:31.672Z,1.20
2022-12-17T07:58:18.663Z,1.33
2022-12-17T08:01:04.179Z,1.42
2022-12-17T08:03:49.557Z,1.23
2022-12-17T08:06:35.439Z,1.30
2022-12-17T08:09:20.887Z,1.48
2022-12-17T08:12:06.433Z,1.50
2022-12-17T08:14:51.640Z,1.30
2022-12-17T08:17:37.194Z,1.25
2022-12-17T08:20:36.871Z,1.20
2022-12-17T08:23:23.753Z,1.15
2022-12-17T08:26:09.458Z,1.50
2022-12-17T08:28:55.178Z,1.33
2022-12-17T08:31:43.074Z,1.30
2022-12-17T08:34:28.427Z,1.30
2022-12-17T08:37:13.761Z,1.23
2022-12-17T08:39:59.313Z,1.17
2022-12-17T08:42:44.591Z,1.20
2022-12-17T08:45:29.960Z,1.35
2022-12-17T08:48:27.451Z,1.20
2022-12-17T08:51:12.808Z,1.20
2022-12-17T08:53:58.252Z,1.10
2022-12-17T08:56:44.598Z,1.27
2022-12-17T08:59:29.867Z,1.10
2022-12-17T09:02:15.557Z,1.20
2022-12-17T09:05:00.988Z,1.30
2022-12-17T09:07:46.423Z,1.27
2022-12-17T09:10:32.666Z,1.20
2022-12-17T09:13:21.987Z,1.08
2022-12-17T09:16:14.598Z,1.20
2022-12-17T09:19:00.775Z,1.23
2022-12-17T09:21:47.159Z,1.20
2022-12-17T09:24:33.054Z,1.27
2022-12-17T09:27:18.529Z,1.00
2022-12-17T09:30:04.054Z,1.00
2022-12-17T09:32:49.446Z,1.30
2022-12-17T09:35:35.048Z,1.10
2022-12-17T09:38:20.493Z,1.17
2022-12-17T09:41:08.479Z,1.10
2022-12-17T09:44:24.188Z,1.10
2022-12-17T09:47:18.780Z,1.30
2022-12-17T09:50:04.265Z,1.20
2022-12-17T09:52:53.982Z,1.00
2022-12-17T09:55:57.864Z,1.10
2022-12-17T09:58:45.385Z,1.00
2022-12-17T10:01:37.872Z,1.20
2022-12-17T10:04:33.147Z,1.30
2022-12-17T10:07:20.349Z,1.10
2022-12-17T10:10:26.849Z,1.10
2022-12-17T10:13:12.276Z,1.10
2022-12-17T10:16:00.248Z,1.30
2022-12-17T10:18:46.062Z,1.00
2022-12-17T10:21:31.404Z,1.10
2022-12-17T10:24:29.985Z,1.20
2022-12-17T10:27:16.669Z,1.20
2022-12-17T10:30:03.097Z,1.10
2022-12-17T10:32:49.276Z,1.10
2022-12-17T10:35:39.995Z,1.08
2022-12-17T10:38:39.483Z,1.10
2022-12-17T10:41:42.123Z,1.10
2022-12-17T10:44:56.170Z,1.13
2022-12-17T10:50:40.086Z,1.05
2022-12-17T10:53:52.509Z,1.10
2022-12-17T10:56:45.298Z,1.10
2022-12-17T10:59:32.000Z,1.20
2022-12-17T11:02:18.473Z,1.00
2022-12-17T11:05:12.946Z,1.10
2022-12-17T11:08:01.795Z,1.00
2022-12-17T11:10:49.894Z,1.23
2022-12-17T11:13:51.508Z,1.00
2022-12-17T11:16:45.985Z,0.98
2022-12-17T11:19:31.211Z,1.10
2022-12-17T11:22:24.580Z,1.20
2022-12-17T11:25:40.741Z,1.00
2022-12-17T11:28:42.477Z,1.02
2022-12-17T11:31:36.972Z,1.00
2022-12-17T11:34:37.494Z,1.00
2022-12-17T11:37:39.656Z,0.95
2022-12-17T11:40:39.966Z,1.10
2022-12-17T11:43:39.172Z,0.90
2022-12-17T11:46:32.311Z,0.80
2022-12-17T11:49:23.249Z,0.90
2022-12-17T11:52:27.523Z,1.00
2022-12-17T11:55:38.425Z,0.90
2022-12-17T11:58:33.772Z,1.00
2022-12-17T12:01:30.856Z,0.90
2022-12-17T12:04:28.252Z,0.90
2022-12-17T12:07:13.717Z,1.20
2022-12-17T12:10:14.424Z,1.05
2022-12-17T12:13:40.775Z,1.10
2022-12-17T12:16:43.407Z,1.10
2022-12-17T12:19:37.007Z,1.10
2022-12-17T12:22:32.259Z,1.05
2022-12-17T12:25:22.032Z,0.88
2022-12-17T12:28:07.554Z,0.85
2022-12-17T12:31:40.316Z,1.00
2022-12-17T12:34:32.742Z,0.95
2022-12-17T12:37:23.484Z,1.00
2022-12-17T12:40:26.644Z,0.90
2022-12-17T12:43:17.976Z,0.90
2022-12-17T12:46:17.891Z,1.10
2022-12-17T12:49:27.231Z,0.95
2022-12-17T12:52:14.386Z,0.77
2022-12-17T12:55:05.453Z,0.90
2022-12-17T12:57:56.184Z,0.93
2022-12-17T13:00:50.368Z,0.88
2022-12-17T13:03:48.015Z,0.90
2022-12-17T13:06:45.782Z,0.90
2022-12-17T13:09:15.656Z,1.00
2022-12-17T13:11:48.270Z,0.80
2022-12-17T13:14:26.364Z,0.90
2022-12-17T13:16:55.936Z,0.88
2022-12-17T13:19:34.525Z,0.77
2022-12-17T13:22:10.206Z,1.10
2022-12-17T13:24:37.336Z,1.00
2022-12-17T13:27:04.665Z,0.80
2022-12-17T13:29:37.755Z,0.80
2022-12-17T13:32:23.082Z,1.00
2022-12-17T13:35:12.472Z,0.80
2022-12-17T13:37:51.401Z,0.80
2022-12-17T13:40:35.667Z,0.90
2022-12-17T13:43:03.358Z,0.85
2022-12-17T13:45:36.523Z,0.80
2022-12-17T13:50:34.328Z,0.80
2022-12-17T13:53:13.005Z,0.82
2022-12-17T13:55:40.264Z,0.95
2022-12-17T13:58:20.587Z,0.80
2022-12-17T14:00:47.396Z,0.70
2022-12-17T14:03:37.102Z,0.80
2022-12-17T14:06:10.724Z,0.77
2022-12-17T14:08:38.492Z,0.90
2022-12-17T14:11:24.310Z,0.85
2022-12-17T14:13:51.238Z,0.80
2022-12-17T14:16:19.895Z,0.70
2022-12-17T14:18:51.391Z,0.80
2022-12-17T14:21:19.254Z,0.82
2022-12-17T14:23:48.479Z,0.90
2022-12-17T14:26:15.699Z,0.73
2022-12-17T14:28:55.546Z,0.80
2022-12-17T14:31:30.497Z,0.80
2022-12-17T14:34:08.038Z,0.90
2022-12-17T14:36:38.633Z,0.93
2022-12-17T14:39:25.932Z,0.80
2022-12-17T14:42:12.881Z,0.85
2022-12-17T14:44:50.591Z,0.90
2022-12-17T14:47:28.179Z,0.82
2022-12-17T14:50:12.717Z,0.80
2022-12-17T14:52:41.402Z,0.90
2022-12-17T14:55:46.991Z,0.80
2022-12-17T14:58:19.669Z,0.70
2022-12-17T15:00:49.652Z,0.73
2022-12-17T15:03:28.127Z,0.82
2022-12-17T15:06:03.244Z,0.90
2022-12-17T15:08:33.279Z,1.00
2022-12-17T15:11:00.111Z,0.80
2022-12-17T15:13:27.321Z,0.93
2022-12-17T15:15:54.097Z,0.90
2022-12-17T15:18:21.643Z,0.80
2022-12-17T15:20:48.448Z,0.98
2022-12-17T15:23:17.930Z,0.88
2022-12-17T15:25:47.140Z,0.93
2022-12-17T15:28:14.543Z,0.80
2022-12-17T15:30:41.675Z,0.90
2022-12-17T15:33:09.762Z,0.88
2022-12-17T15:35:37.836Z,0.80
2022-12-17T15:38:05.272Z,0.90
2022-12-17T15:40:32.227Z,1.08
2022-12-17T15:43:11.481Z,0.90
2022-12-17T15:45:44.911Z,0.90
2022-12-17T15:48:21.071Z,0.90
2022-12-17T15:50:48.743Z,0.82
2022-12-17T15:53:15.701Z,0.90
2022-12-17T15:55:42.495Z,1.10
2022-12-17T15:58:11.521Z,0.90
2022-12-17T16:00:38.599Z,0.90
2022-12-17T16:03:05.556Z,0.90
2022-12-17T16:05:32.488Z,0.82
2022-12-17T16:08:02.298Z,1.10
2022-12-17T16:10:29.594Z,0.80
2022-12-17T16:12:56.328Z,0.80
2022-12-17T16:15:23.116Z,1.00
2022-12-17T16:17:49.919Z,0.90
2022-12-17T16:20:16.744Z,0.90
2022-12-17T16:22:44.465Z,1.02
2022-12-17T16:25:11.268Z,1.00
2022-12-17T16:27:38.455Z,1.10
2022-12-17T16:30:05.860Z,0.90
2022-12-17T16:32:36.571Z,1.00
2022-12-17T16:35:04.904Z,1.00
2022-12-17T16:37:31.878Z,1.10
2022-12-17T16:40:00.372Z,0.90
2022-12-17T16:42:27.808Z,0.90
2022-12-17T16:44:54.544Z,0.93
2022-12-17T16:47:21.481Z,1.00
2022-12-17T16:49:50.632Z,1.05
2022-12-17T16:52:17.574Z,1.10
2022-12-17T16:54:44.332Z,1.13
2022-12-17T16:57:11.138Z,1.02
2022-12-17T16:59:37.913Z,0.80
2022-12-17T17:02:04.769Z,0.98
2022-12-17T17:04:31.615Z,1.10
2022-12-17T17:06:58.416Z,1.10
2022-12-17T17:09:25.753Z,1.10
2022-12-17T17:11:55.855Z,1.10
2022-12-17T17:14:22.692Z,0.93
2022-12-17T17:16:49.746Z,1.08
2022-12-17T17:19:16.702Z,0.93
2022-12-17T17:21:49.902Z,1.00
2022-12-17T17:24:21.142Z,1.00
2022-12-17T17:26:49.879Z,0.90
2022-12-17T17:29:16.997Z,1.00
2022-12-17T17:32:09.037Z,0.95
2022-12-17T17:34:30.527Z,1.00
2022-12-17T17:36:57.349Z,1.00
2022-12-17T17:39:24.078Z,1.05
2022-12-17T17:41:50.876Z,1.20
2022-12-17T17:44:17.674Z,1.00
2022-12-17T17:46:44.512Z,0.95
2022-12-17T17:49:11.949Z,1.00
2022-12-17T17:54:30.662Z,1.05
2022-12-17T17:56:57.655Z,1.10
2022-12-17T17:59:32.525Z,0.90
2022-12-17T18:02:01.227Z,1.00
2022-12-17T18:04:28.273Z,1.08
2022-12-17T18:09:41.967Z,0.90
2022-12-17T18:12:27.691Z,1.00
2022-12-17T18:17:41.561Z,1.00
2022-12-17T18:20:09.794Z,1.00
2022-12-17T18:22:37.147Z,1.17
2022-12-17T18:25:04.888Z,1.08
2022-12-17T18:27:31.627Z,1.15
2022-12-17T18:29:58.379Z,0.90
2022-12-17T18:32:25.141Z,1.02
2022-12-17T18:34:52.162Z,1.00
2022-12-17T18:37:19.035Z,1.02
2022-12-17T18:39:45.847Z,1.02
2022-12-17T18:42:31.201Z,0.90
2022-12-17T18:44:57.961Z,1.10
2022-12-17T18:47:25.552Z,1.13
2022-12-17T18:49:52.510Z,1.10
2022-12-17T18:52:19.511Z,0.90
2022-12-17T18:54:46.363Z,0.90
2022-12-17T18:57:13.404Z,1.00
2022-12-17T18:59:41.200Z,1.02
2022-12-17T19:02:15.219Z,0.98
2022-12-17T19:04:42.270Z,1.00
2022-12-17T19:07:09.315Z,0.90
2022-12-17T19:09:36.505Z,1.10
2022-12-17T19:12:06.267Z,0.90
2022-12-17T19:14:33.739Z,1.00
2022-12-17T19:17:00.991Z,0.90
2022-12-17T19:19:28.065Z,1.23
2022-12-17T19:21:55.420Z,1.10
2022-12-17T19:24:23.382Z,1.10
2022-12-17T19:26:51.037Z,1.10
2022-12-17T19:29:19.198Z,1.10
2022-12-17T19:31:46.247Z,1.10
2022-12-17T19:34:14.821Z,1.00
2022-12-17T19:36:42.464Z,1.13
2022-12-17T19:39:12.890Z,1.00
2022-12-17T19:41:40.001Z,1.02
2022-12-17T19:44:10.823Z,1.00
2022-12-17T19:46:37.577Z,1.00
2022-12-17T19:49:05.201Z,1.10
2022-12-17T19:51:32.635Z,1.00
2022-12-17T19:54:06.520Z,1.13
2022-12-17T19:56:35.232Z,1.00
2022-12-17T19:59:07.024Z,1.00
2022-12-17T20:01:37.167Z,1.33
2022-12-17T20:04:05.423Z,1.10
2022-12-17T20:06:33.796Z,1.20
2022-12-17T20:09:02.130Z,0.90
2022-12-17T20:11:34.730Z,1.00
2022-12-17T20:14:10.263Z,1.00
2022-12-17T20:16:43.020Z,1.02
2022-12-17T20:19:15.696Z,0.90
2022-12-17T20:21:42.911Z,1.10
2022-12-17T20:24:11.196Z,0.95
2022-12-17T20:26:38.369Z,1.00
2022-12-17T20:29:05.707Z,1.00
2022-12-17T20:31:33.265Z,1.02
2022-12-17T20:34:01.537Z,1.00
2022-12-17T20:36:28.302Z,1.00
2022-12-17T20:38:55.151Z,0.93
2022-12-17T20:41:27.418Z,0.95
2022-12-17T20:43:55.039Z,1.10
2022-12-17T20:46:23.163Z,0.90
2022-12-17T20:48:50.566Z,1.00
2022-12-17T20:51:20.187Z,1.33
2022-12-17T20:53:47.457Z,1.00
2022-12-17T20:56:17.839Z,1.30
2022-12-17T20:58:45.175Z,1.10
2022-12-17T21:01:18.672Z,1.02
2022-12-17T21:03:46.300Z,1.20
2022-12-17T21:06:16.554Z,1.05
2022-12-17T21:08:49.275Z,1.10
2022-12-17T21:11:19.523Z,0.90
2022-12-17T21:13:46.873Z,1.20
2022-12-17T21:16:17.018Z,1.08
2022-12-17T21:18:43.889Z,1.15
2022-12-17T21:21:14.108Z,1.15
2022-12-17T21:23:41.220Z,1.02
2022-12-17T21:26:22.735Z,1.10
2022-12-17T21:28:53.432Z,0.90
2022-12-17T21:31:35.458Z,1.10
2022-12-17T21:34:04.765Z,1.00
2022-12-17T21:36:33.769Z,1.10
2022-12-17T21:39:01.362Z,1.15
2022-12-17T21:41:32.734Z,1.20
2022-12-17T21:44:02.018Z,1.10
2022-12-17T21:46:29.197Z,1.13
2022-12-17T21:49:00.969Z,1.02
2022-12-17T21:51:28.847Z,1.20
2022-12-17T21:54:01.434Z,1.20
2022-12-17T21:56:28.995Z,1.05
2022-12-17T21:58:58.615Z,1.15
2022-12-17T22:01:29.200Z,1.00
2022-12-17T22:03:58.646Z,1.10
2022-12-17T22:06:27.635Z,1.17
2022-12-17T22:09:02.178Z,1.10
2022-12-17T22:11:36.649Z,1.10
2022-12-17T22:14:08.543Z,1.10
2022-12-17T22:16:42.177Z,1.40
2022-12-17T22:19:14.120Z,1.15
2022-12-17T22:21:44.316Z,1.10
2022-12-17T22:24:16.482Z,1.05
2022-12-17T22:26:43.755Z,1.40
2022-12-17T22:29:10.759Z,1.10
2022-12-17T22:31:55.967Z,1.20
2022-12-17T22:35:14.393Z,1.10
2022-12-17T22:38:54.934Z,1.20
2022-12-17T22:44:31.563Z,1.30
2022-12-17T22:44:41.940Z,1.30
2022-12-17T22:45:48.767Z,1.10
2022-12-17T22:48:15.650Z,1.10
2022-12-17T22:50:49.676Z,1.15
2022-12-17T22:53:28.202Z,1.10
2022-12-17T22:55:55.281Z,1.00
2022-12-17T22:58:23.152Z,1.20
2022-12-17T23:00:49.914Z,1.00
2022-12-17T23:03:17.152Z,1.30
2022-12-17T23:05:43.926Z,1.17
2022-12-17T23:08:10.687Z,1.30
2022-12-17T23:10:37.468Z,1.40
2022-12-17T23:13:04.291Z,1.10
2022-12-17T23:15:36.655Z,1.05
2022-12-17T23:18:05.854Z,1.15
2022-12-17T23:20:34.559Z,1.20
2022-12-17T23:23:01.737Z,1.40
2022-12-17T23:25:29.357Z,1.50
2022-12-17T23:27:56.233Z,1.10
2022-12-17T23:30:23.007Z,1.48
2022-12-17T23:32:49.760Z,1.10
2022-12-17T23:35:16.757Z,1.00
2022-12-17T23:37:43.555Z,1.35
2022-12-17T23:40:12.163Z,1.33
2022-12-17T23:42:39.532Z,1.40
2022-12-17T23:45:07.849Z,1.40
2022-12-17T23:47:34.569Z,1.17
2022-12-17T23:50:01.554Z,1.50
2022-12-17T23:52:28.474Z,1.35
2022-12-17T23:54:55.447Z,1.35
2022-12-17T23:57:22.246Z,1.40
2022-12-17T23:59:49.050Z,1.23
